Time;durP1;ratioP1;P1;durP2;ratioP2;P2;SDS_P1;SDS_P2;PMS_P1;PMS_P2;Temp;Humidity;BMP_temperature;BMP_pressure;BME280_temperature;BME280_humidity;BME280_pressure;Samples;Min_cycle;Max_cycle;Signal;HPM_P1;HPM_P2
2022/05/22 00:02:21;;;;;;;4.43;2.00;;;;;;;12.69;76.68;100966.53;5003065;28;20096;-77
2022/05/22 00:05:24;;;;;;;;;;;;;;;12.64;76.36;100973.00;5004316;28;20048;-77
2022/05/22 00:08:28;;;;;;;;;;;;;;;12.39;76.89;100978.69;5010404;28;19924;-77
2022/05/22 00:11:34;;;;;;;7.68;1.80;;;;;;;12.48;77.51;100975.59;5009906;28;20285;-77
2022/05/22 00:14:38;;;;;;;4.65;2.13;;;;;;;12.72;76.71;100970.78;5006132;28;20149;-77
2022/05/22 00:17:42;;;;;;;10.52;2.35;;;;;;;12.70;77.16;100957.75;4987112;28;20053;-77
2022/05/22 00:20:45;;;;;;;4.75;2.10;;;;;;;12.89;76.72;100961.97;5000133;28;20050;-77
2022/05/22 00:23:49;;;;;;;6.13;2.10;;;;;;;12.99;76.25;100950.91;4995635;28;20048;-77
2022/05/22 00:26:53;;;;;;;6.78;2.75;;;;;;;13.00;76.25;100949.13;5006073;28;20092;-77
2022/05/22 00:29:56;;;;;;;9.13;2.58;;;;;;;13.03;76.12;100951.59;5002127;28;20532;-77
2022/05/22 00:33:00;;;;;;;5.32;2.30;;;;;;;12.99;76.21;100955.31;5021260;28;20405;-77
2022/05/22 00:36:04;;;;;;;4.45;2.35;;;;;;;12.85;77.07;100960.47;5010507;28;20096;-77
2022/05/22 00:39:08;;;;;;;5.80;2.40;;;;;;;12.88;77.09;100960.31;5015675;28;20498;-77
2022/05/22 00:42:18;;;;;;;4.88;2.88;;;;;;;12.82;77.02;100965.88;4995203;28;20084;-77
2022/05/22 00:45:22;;;;;;;4.85;2.17;;;;;;;12.77;77.00;100980.09;4997698;28;20053;-77
2022/05/22 00:49:19;;;;;;;8.07;2.30;;;;;;;12.75;77.24;100966.22;5014898;28;20076;-77
2022/05/22 00:52:48;;;;;;;8.68;2.35;;;;;;;12.76;77.22;100959.19;5005507;28;20041;-77
2022/05/22 00:55:52;;;;;;;6.53;2.28;;;;;;;12.84;77.43;100950.91;4986038;28;20041;-77
2022/05/22 00:58:56;;;;;;;4.03;2.47;;;;;;;12.74;77.22;100951.41;4994917;28;20181;-77
2022/05/22 01:02:01;;;;;;;4.70;2.45;;;;;;;12.69;77.26;100945.56;4982529;28;20269;-77
2022/05/22 01:05:08;;;;;;;6.60;2.20;;;;;;;12.43;77.69;100948.75;4982759;28;20589;-77
2022/05/22 01:08:11;;;;;;;;;;;;;;;12.40;78.03;100939.25;4995190;28;20569;-77
2022/05/22 01:11:23;;;;;;;5.45;2.65;;;;;;;12.59;77.39;100938.28;4978745;28;19960;-77
2022/05/22 01:14:28;;;;;;;4.93;2.42;;;;;;;12.61;77.88;100932.03;4986389;28;20087;-77
2022/05/22 01:17:42;;;;;;;5.50;2.45;;;;;;;12.70;77.41;100931.53;4991179;28;20073;-77
2022/05/22 01:20:51;;;;;;;6.60;2.42;;;;;;;12.69;77.88;100935.06;4995420;28;20060;-77
2022/05/22 01:23:58;;;;;;;7.95;2.20;;;;;;;12.56;77.79;100934.03;5002385;28;20821;-77
2022/05/22 01:27:09;;;;;;;9.35;4.20;;;;;;;12.50;78.30;100950.09;4989398;28;20044;-77
2022/05/22 01:30:39;;;;;;;4.70;2.33;;;;;;;12.57;78.01;100952.34;5000577;28;20500;-77
2022/05/22 01:33:46;;;;;;;7.82;2.40;;;;;;;12.57;77.70;100935.72;4981946;28;20413;-77
2022/05/22 01:36:49;;;;;;;9.50;3.08;;;;;;;12.60;77.89;100935.56;4994907;28;20081;-77
2022/05/22 01:39:53;;;;;;;7.35;2.58;;;;;;;12.51;78.10;100925.59;5001841;28;20139;-77
2022/05/22 01:42:56;;;;;;;7.43;2.50;;;;;;;12.49;78.47;100922.19;5012290;28;20080;-77
2022/05/22 01:46:02;;;;;;;13.73;3.08;;;;;;;12.43;78.69;100927.75;4990138;28;20044;-77
2022/05/22 01:49:07;;;;;;;6.75;2.50;;;;;;;12.47;78.48;100916.16;5013506;28;20061;-77
2022/05/22 01:52:11;;;;;;;3.83;2.35;;;;;;;12.47;78.62;100918.78;4993780;28;20084;-77
2022/05/22 01:55:15;;;;;;;5.20;2.63;;;;;;;12.41;78.49;100932.22;4986618;28;20110;-77
2022/05/22 01:58:22;;;;;;;7.25;2.42;;;;;;;12.50;78.13;100934.38;4997854;28;20076;-77
2022/05/22 02:01:26;;;;;;;6.03;2.50;;;;;;;12.45;78.17;100928.53;5001132;28;20092;-77
2022/05/22 02:04:32;;;;;;;4.30;1.60;;;;;;;12.41;77.63;100929.59;5006355;28;20140;-77
2022/05/22 02:11:05;;;;;;;8.23;2.25;;;;;;;12.44;77.11;100926.81;4991618;28;20111;-77
2022/05/22 02:14:09;;;;;;;6.22;1.92;;;;;;;12.44;77.07;100932.06;5009148;28;20446;-77
2022/05/22 02:17:12;;;;;;;5.50;2.08;;;;;;;12.45;77.04;100923.28;4988644;28;20125;-77
2022/05/22 02:20:26;;;;;;;;;;;;;;;12.40;77.18;100933.16;4982644;28;20041;-77
2022/05/22 02:23:32;;;;;;;7.38;2.20;;;;;;;12.28;77.81;100930.28;4992620;28;19925;-77
2022/05/22 02:26:36;;;;;;;9.15;2.70;;;;;;;12.50;77.04;100929.13;4990693;28;20045;-77
2022/05/22 02:29:40;;;;;;;4.03;2.03;;;;;;;12.57;77.00;100919.97;4993235;28;20096;-77
2022/05/22 02:32:44;;;;;;;5.88;2.50;;;;;;;12.38;78.11;100911.41;4993861;28;20517;-77
2022/05/22 02:35:51;;;;;;;7.00;2.70;;;;;;;12.22;78.25;100908.75;4973679;28;20112;-77
2022/05/22 02:39:02;;;;;;;6.18;2.40;;;;;;;12.02;79.10;100909.81;4973563;28;20394;-77
2022/05/22 02:42:08;;;;;;;3.20;2.10;;;;;;;12.14;78.89;100903.09;4961881;28;20054;-77
2022/05/22 02:45:12;;;;;;;4.03;2.42;;;;;;;12.19;78.46;100891.44;4972547;28;20101;-77
2022/05/22 02:48:15;;;;;;;4.18;2.33;;;;;;;12.12;78.45;100897.91;4972971;28;20074;-77
2022/05/22 02:51:32;;;;;;;4.45;2.30;;;;;;;12.19;77.92;100895.81;4972752;28;20399;-77
2022/05/22 02:54:35;;;;;;;5.43;2.30;;;;;;;11.89;79.38;100903.53;4973357;28;20073;-77
2022/05/22 02:57:46;;;;;;;9.85;2.60;;;;;;;11.61;80.69;100902.25;4984678;28;20053;-77
2022/05/22 03:00:49;;;;;;;6.55;2.00;;;;;;;11.68;80.74;100900.19;4989181;28;20450;-77
2022/05/22 03:03:53;;;;;;;2.72;1.95;;;;;;;11.71;80.12;100892.16;4972565;28;20053;-77
2022/05/22 03:06:58;;;;;;;3.58;1.60;;;;;;;11.99;79.00;100889.00;4994675;28;20126;-77
2022/05/22 03:10:02;;;;;;;5.20;2.20;;;;;;;12.08;78.68;100891.16;4995069;28;20181;-77
2022/05/22 03:13:13;;;;;;;3.95;2.17;;;;;;;12.07;79.02;100885.06;4985221;28;20045;-77
2022/05/22 03:16:17;;;;;;;4.88;2.10;;;;;;;11.79;80.18;100877.75;4991385;28;20073;-77
2022/05/22 03:19:37;;;;;;;4.25;1.90;;;;;;;11.84;79.40;100880.16;4991284;28;20084;-77
2022/05/22 03:22:40;;;;;;;4.78;1.90;;;;;;;11.91;78.80;100883.34;4972132;28;20066;-77
2022/05/22 03:25:46;;;;;;;3.65;1.92;;;;;;;12.04;78.60;100866.88;4987880;28;20302;-77
2022/05/22 03:28:49;;;;;;;4.47;2.13;;;;;;;12.08;78.64;100867.56;4981954;28;20049;-77
2022/05/22 03:31:53;;;;;;;6.75;2.65;;;;;;;12.15;78.24;100866.28;4984069;28;20097;-77
2022/05/22 03:34:57;;;;;;;3.63;2.10;;;;;;;12.07;78.99;100860.63;5009483;28;20509;-77
2022/05/22 03:38:03;;;;;;;5.20;2.00;;;;;;;12.22;78.00;100867.69;4986449;28;20125;-77
2022/05/22 03:41:06;;;;;;;7.78;2.65;;;;;;;12.01;77.88;100860.97;5008314;28;20053;-77
2022/05/22 03:44:17;;;;;;;5.60;2.97;;;;;;;11.91;78.31;100863.22;5013904;28;20049;-77
2022/05/22 03:47:24;;;;;;;8.05;3.13;;;;;;;11.82;78.99;100872.34;4992519;28;20570;-76
2022/05/22 03:50:40;;;;;;;5.78;2.47;;;;;;;11.98;78.26;100869.81;4986308;28;20050;-76
2022/05/22 03:53:44;;;;;;;3.90;2.30;;;;;;;11.96;77.70;100863.81;4991338;28;20058;-77
2022/05/22 03:56:58;;;;;;;6.45;2.40;;;;;;;11.79;77.94;100864.66;4987755;28;20093;-77
2022/05/22 04:00:14;;;;;;;8.15;2.40;;;;;;;11.71;78.06;100861.59;4972403;28;20510;-77
2022/05/22 04:03:21;;;;;;;7.18;2.30;;;;;;;11.80;77.92;100855.88;4991830;28;20052;-77
2022/05/22 04:06:29;;;;;;;4.50;2.35;;;;;;;11.78;77.88;100855.13;4991912;28;20394;-77
2022/05/22 04:09:33;;;;;;;5.85;2.10;;;;;;;11.84;77.63;100846.97;4988702;28;20054;-77
2022/05/22 04:12:48;;;;;;;4.05;2.08;;;;;;;11.88;78.05;100847.66;4978432;28;20520;-77
2022/05/22 04:15:52;;;;;;;6.57;2.33;;;;;;;11.98;78.67;100845.41;4988459;28;20629;-77
2022/05/22 04:18:56;;;;;;;3.53;2.00;;;;;;;12.02;78.15;100839.06;4972283;28;20046;-77
2022/05/22 04:22:00;;;;;;;5.03;2.75;;;;;;;11.99;78.26;100840.06;4979659;28;20065;-77
2022/05/22 04:25:15;;;;;;;7.65;2.63;;;;;;;11.84;78.46;100838.25;4983330;28;20068;-77
2022/05/22 04:28:19;;;;;;;5.20;2.33;;;;;;;11.83;78.78;100837.38;4993811;28;20096;-77
2022/05/22 04:31:30;;;;;;;4.10;2.50;;;;;;;11.79;78.67;100842.84;4995113;28;20079;-77
2022/05/22 04:34:49;;;;;;;6.65;2.25;;;;;;;11.70;79.18;100849.41;5002158;28;20121;-77
2022/05/22 04:37:54;;;;;;;4.40;2.10;;;;;;;11.81;78.84;100848.88;4990839;28;20504;-77
2022/05/22 04:41:00;;;;;;;5.38;2.42;;;;;;;11.72;79.04;100849.34;5002966;28;20084;-77
2022/05/22 04:44:05;;;;;;;5.03;2.78;;;;;;;11.62;80.05;100846.34;4991857;28;20097;-77
2022/05/22 04:47:08;;;;;;;8.07;2.30;;;;;;;11.66;79.98;100858.38;5011991;28;20061;-77
2022/05/22 04:50:13;;;;;;;4.65;2.22;;;;;;;11.62;79.55;100864.69;4995286;28;20052;-77
2022/05/22 04:53:51;;;;;;;3.72;2.28;;;;;;;11.59;79.85;100863.06;4993172;28;20068;-76
2022/05/22 04:56:59;;;;;;;3.35;2.20;;;;;;;11.59;80.29;100859.63;4994985;28;20049;-76
2022/05/22 05:00:06;;;;;;;3.03;1.92;;;;;;;11.77;79.20;100856.06;4991868;28;20168;-76
2022/05/22 05:03:14;;;;;;;4.72;1.95;;;;;;;11.71;79.45;100858.13;4997717;28;20132;-76
2022/05/22 05:06:19;;;;;;;2.90;1.75;;;;;;;11.78;79.44;100841.19;5001886;28;20512;-76
2022/05/22 05:09:24;;;;;;;5.40;1.85;;;;;;;11.64;79.83;100852.34;5000968;28;20049;-76
2022/05/22 05:12:28;;;;;;;6.63;2.03;;;;;;;11.74;79.86;100848.34;5022748;28;20051;-76
2022/05/22 05:15:32;;;;;;;3.50;1.60;;;;;;;11.76;79.18;100840.41;5008183;28;20061;-76
2022/05/22 05:18:55;;;;;;;2.58;1.48;;;;;;;11.81;78.70;100847.09;5004710;28;20048;-75
2022/05/22 05:22:00;;;;;;;3.72;2.50;;;;;;;11.73;79.60;100849.25;4996629;28;20089;-76
2022/05/22 05:25:05;;;;;;;2.75;1.55;;;;;;;11.66;79.62;100853.13;5001982;28;20080;-76
2022/05/22 05:28:09;;;;;;;2.47;1.33;;;;;;;11.78;78.99;100844.63;5001606;28;20084;-76
2022/05/22 05:31:14;;;;;;;5.03;1.48;;;;;;;11.81;78.30;100848.88;5012474;28;20428;-76
2022/05/22 05:34:18;;;;;;;2.67;1.27;;;;;;;11.99;77.31;100847.91;4981948;28;20410;-75
2022/05/22 05:37:32;;;;;;;2.30;1.10;;;;;;;11.83;78.03;100847.84;4981967;28;20040;-76
2022/05/22 05:40:48;;;;;;;3.20;1.30;;;;;;;12.03;77.22;100861.72;4984681;28;20056;-76
2022/05/22 05:43:54;;;;;;;4.18;1.73;;;;;;;11.61;78.96;100860.38;5004283;28;20049;-76
2022/05/22 05:46:57;;;;;;;2.20;1.27;;;;;;;11.66;79.50;100863.59;4982160;28;20200;-76
2022/05/22 05:50:09;;;;;;;3.88;1.88;;;;;;;11.49;80.33;100861.00;4981670;28;20405;-76
2022/05/22 05:53:33;;;;;;;2.67;1.70;;;;;;;11.63;80.14;100861.13;5015456;28;20096;-76
2022/05/22 05:56:55;;;;;;;3.22;1.50;;;;;;;11.55;80.30;100858.06;5010323;28;20133;-76
2022/05/22 06:00:24;;;;;;;2.95;1.60;;;;;;;11.74;80.10;100853.59;5010912;28;20044;-76
2022/05/22 06:03:30;;;;;;;3.65;1.50;;;;;;;12.10;78.77;100848.22;5011706;28;20065;-76
2022/05/22 06:06:34;;;;;;;3.45;1.60;;;;;;;12.25;78.11;100833.44;4997400;28;20453;-76
2022/05/22 06:09:39;;;;;;;2.45;1.50;;;;;;;12.29;78.57;100832.34;4999722;28;20075;-76
2022/05/22 06:12:43;;;;;;;4.57;1.83;;;;;;;12.21;77.98;100837.13;4993990;28;20044;-76
2022/05/22 06:15:48;;;;;;;3.78;2.03;;;;;;;12.21;78.79;100831.88;4994781;28;20076;-76
2022/05/22 06:18:52;;;;;;;4.18;1.80;;;;;;;12.17;78.89;100830.38;4983076;28;20064;-76
2022/05/22 06:21:58;;;;;;;3.08;1.77;;;;;;;12.27;78.34;100822.84;4639873;28;10000949;-76
2022/05/22 06:25:08;;;;;;;3.40;1.70;;;;;;;12.20;78.25;100826.75;4998718;28;20187;-76
2022/05/22 06:28:45;;;;;;;6.25;2.30;;;;;;;12.36;77.68;100821.50;4976100;28;20041;-76
2022/05/22 06:32:24;;;;;;;4.72;2.78;;;;;;;12.50;77.88;100829.44;4917094;28;20507;-76
2022/05/22 06:35:48;;;;;;;5.75;2.30;;;;;;;12.57;78.17;100820.31;5005025;28;20393;-76
2022/05/22 06:43:01;;;;;;;5.25;2.08;;;;;;;12.75;78.01;100824.53;4985408;28;20099;-76
2022/05/22 06:46:12;;;;;;;7.00;2.38;;;;;;;12.85;78.27;100814.34;4998035;28;20053;-75
2022/05/22 06:49:37;;;;;;;6.20;2.47;;;;;;;13.02;77.92;100813.41;4993401;28;20056;-76
2022/05/22 06:52:52;;;;;;;6.57;3.08;;;;;;;12.97;78.57;100818.06;5000860;28;20111;-73
2022/05/22 06:56:19;;;;;;;5.15;2.40;;;;;;;13.19;78.39;100809.78;4982550;28;20398;-73
2022/05/22 06:59:53;;;;;;;7.65;2.80;;;;;;;13.35;78.72;100815.00;4992188;28;20100;-73
2022/05/22 07:03:23;;;;;;;6.53;2.58;;;;;;;13.53;78.54;100823.56;5000964;28;20044;-73
2022/05/22 07:06:49;;;;;;;8.38;3.03;;;;;;;13.58;77.38;100814.47;4996355;28;20398;-73
2022/05/22 07:09:54;;;;;;;5.22;2.67;;;;;;;13.63;77.40;100808.97;5006592;28;20075;-73
2022/05/22 07:13:17;;;;;;;5.18;2.63;;;;;;;13.76;77.49;100811.69;5009501;28;20068;-73
2022/05/22 07:16:34;;;;;;;6.18;2.30;;;;;;;13.91;76.63;100805.47;5013687;28;20053;-73
2022/05/22 07:19:48;;;;;;;8.90;2.83;;;;;;;13.90;77.13;100809.88;4986592;28;20120;-73
2022/05/22 07:23:10;;;;;;;4.95;2.60;;;;;;;14.08;75.59;100791.28;5006327;28;20417;-73
2022/05/22 07:26:38;;;;;;;9.30;2.97;;;;;;;14.21;75.69;100783.47;5007509;28;20112;-73
2022/05/22 07:30:03;;;;;;;7.80;2.95;;;;;;;14.34;76.10;100787.00;5012129;28;20053;-73
2022/05/22 07:33:20;;;;;;;9.10;2.90;;;;;;;14.39;75.45;100782.31;5010855;28;20108;-73
2022/05/22 07:36:49;;;;;;;8.82;2.60;;;;;;;14.62;75.83;100768.53;5023005;28;20108;-73
2022/05/22 07:40:11;;;;;;;7.60;2.92;;;;;;;14.76;74.71;100767.63;5012098;28;20456;-73
2022/05/22 07:43:35;;;;;;;7.25;2.50;;;;;;;14.87;73.75;100751.97;5022083;28;20104;-73
2022/05/22 07:46:47;;;;;;;7.88;2.30;;;;;;;14.92;73.63;100751.66;5011824;28;20057;-73
2022/05/22 07:53:37;;;;;;;7.43;2.38;;;;;;;15.27;72.93;100735.25;5012494;28;20048;-73
2022/05/22 07:56:59;;;;;;;4.13;2.03;;;;;;;15.41;72.68;100737.81;5026044;28;20436;-73
2022/05/22 08:00:20;;;;;;;8.52;2.20;;;;;;;15.48;72.55;100741.69;5025054;28;20057;-73
2022/05/22 08:03:30;;;;;;;5.75;2.22;;;;;;;15.59;72.24;100741.78;5026164;28;20048;-73
2022/05/22 08:06:35;;;;;;;5.85;1.98;;;;;;;15.73;72.31;100743.50;5004204;28;20101;-73
2022/05/22 08:09:48;;;;;;;7.20;2.15;;;;;;;15.85;71.42;100725.94;5004216;28;20099;-75
2022/05/22 08:12:51;;;;;;;6.43;1.92;;;;;;;15.94;71.45;100719.19;5003259;28;20540;-73
2022/05/22 08:16:00;;;;;;;10.00;2.35;;;;;;;16.02;71.30;100717.69;5003110;28;20456;-73
2022/05/22 08:19:08;;;;;;;7.03;1.88;;;;;;;16.10;71.14;100713.66;5025064;28;20104;-73
2022/05/22 08:22:20;;;;;;;7.07;2.25;;;;;;;16.22;71.07;100708.31;5002779;28;20135;-73
2022/05/22 08:25:47;;;;;;;10.40;2.47;;;;;;;16.41;70.95;100702.53;5014036;28;20045;-73
2022/05/22 08:28:51;;;;;;;10.35;2.50;;;;;;;16.67;68.83;100697.94;5025900;28;20072;-73
2022/05/22 08:31:55;;;;;;;8.35;2.20;;;;;;;16.68;68.74;100682.94;5002906;28;20045;-73
2022/05/22 08:34:58;;;;;;;4.28;1.90;;;;;;;16.69;67.71;100684.66;5015251;28;20048;-73
2022/05/22 08:38:03;;;;;;;10.85;1.90;;;;;;;16.70;67.21;100689.81;5002899;28;20064;-73
2022/05/22 08:41:19;;;;;;;6.20;1.90;;;;;;;16.76;65.85;100685.06;5014902;28;20108;-73
2022/05/22 08:44:27;;;;;;;10.40;2.20;;;;;;;16.78;65.96;100673.41;5014562;28;20084;-74
2022/05/22 08:47:59;;;;;;;8.63;2.03;;;;;;;17.05;64.70;100669.63;4990665;28;20131;-73
2022/05/22 08:51:09;;;;;;;7.53;1.92;;;;;;;17.26;63.56;100665.31;5014884;28;20084;-73
2022/05/22 08:54:22;;;;;;;8.30;1.95;;;;;;;17.47;60.28;100661.94;5015016;28;20112;-73
2022/05/22 09:01:17;;;;;;;7.88;1.73;;;;;;;17.54;56.79;100660.50;5014905;28;20112;-73
2022/05/22 09:04:37;;;;;;;12.13;3.03;;;;;;;17.60;56.51;100660.84;5013992;28;20096;-73
2022/05/22 09:07:55;;;;;;;7.32;1.85;;;;;;;17.70;57.67;100655.66;5014530;28;20052;-73
2022/05/22 09:11:28;;;;;;;6.43;1.88;;;;;;;17.76;58.13;100656.97;5002095;28;20074;-74
2022/05/22 09:14:42;;;;;;;6.53;1.67;;;;;;;17.87;57.04;100646.44;5014278;28;20567;-73
2022/05/22 09:18:09;;;;;;;7.65;2.00;;;;;;;17.78;56.47;100645.34;5012948;28;20129;-74
2022/05/22 09:21:48;;;;;;;5.25;1.67;;;;;;;17.72;57.29;100637.88;5013581;28;20079;-73
2022/05/22 09:25:11;;;;;;;9.52;1.65;;;;;;;17.76;56.22;100631.38;5011715;28;20113;-73
2022/05/22 09:28:49;;;;;;;6.30;1.92;;;;;;;18.06;56.99;100624.56;4993045;28;20580;-76
2022/05/22 09:32:09;;;;;;;11.45;2.08;;;;;;;18.35;55.23;100625.66;5009449;28;20091;-76
2022/05/22 09:35:29;;;;;;;9.50;2.30;;;;;;;18.46;52.05;100623.94;4996285;28;20036;-76
2022/05/22 09:38:32;;;;;;;5.68;1.80;;;;;;;18.40;51.43;100619.97;4998947;28;20073;-76
2022/05/22 09:41:51;;;;;;;5.63;1.60;;;;;;;18.44;52.42;100623.19;5008256;28;20080;-77
2022/05/22 09:45:04;;;;;;;6.72;1.65;;;;;;;18.47;52.58;100622.94;5003994;28;20076;-75
2022/05/22 09:48:20;;;;;;;8.95;1.95;;;;;;;18.68;54.46;100609.72;5009437;28;20421;-76
2022/05/22 09:52:02;;;;;;;6.78;1.80;;;;;;;18.75;51.55;100610.91;5014276;28;20080;-76
2022/05/22 09:55:19;;;;;;;6.03;1.60;;;;;;;18.56;50.99;100601.00;5013175;28;20053;-76
2022/05/22 09:59:01;;;;;;;6.65;2.10;;;;;;;18.48;50.62;100606.94;5013235;28;20100;-77
2022/05/22 10:02:36;;;;;;;5.97;1.73;;;;;;;18.59;52.08;100604.22;5013147;28;20048;-79
2022/05/22 10:05:39;;;;;;;7.55;1.27;;;;;;;18.69;51.85;100596.31;5012465;28;20037;-79
2022/05/22 10:08:48;;;;;;;4.05;1.35;;;;;;;18.78;52.70;100600.03;5012843;28;20112;-79
2022/05/22 10:12:15;;;;;;;6.13;1.42;;;;;;;18.93;51.75;100592.59;5012853;28;20112;-77
2022/05/22 10:15:38;;;;;;;7.05;2.15;;;;;;;19.00;49.81;100589.28;5012373;28;20288;-81
2022/05/22 10:19:16;;;;;;;4.20;1.15;;;;;;;18.96;48.82;100592.34;5004235;28;20051;-80
2022/05/22 10:22:56;;;;;;;6.05;1.23;;;;;;;18.96;49.15;100581.75;5012889;28;20053;-80
2022/05/22 10:26:18;;;;;;;5.45;1.50;;;;;;;19.12;49.19;100587.38;5001200;28;20108;-81
2022/05/22 10:29:49;;;;;;;7.68;1.42;;;;;;;19.34;48.08;100590.81;5000837;28;20053;-81
2022/05/22 10:32:57;;;;;;;4.97;1.27;;;;;;;19.39;46.60;100589.41;5013023;28;20076;-81
2022/05/22 10:36:08;;;;;;;8.70;2.00;;;;;;;19.36;47.01;100586.19;5004795;28;20413;-80
2022/05/22 10:39:14;;;;;;;4.78;1.30;;;;;;;19.32;46.50;100582.13;5001031;28;20296;-80
2022/05/22 10:42:46;;;;;;;6.55;1.40;;;;;;;19.48;48.40;100571.84;4999856;28;20196;-76
2022/05/22 10:45:49;;;;;;;6.07;1.48;;;;;;;19.65;47.97;100557.94;5007433;28;20045;-80
2022/05/22 10:48:57;;;;;;;8.00;1.67;;;;;;;19.55;46.81;100551.75;5004573;28;20037;-80
2022/05/22 10:52:05;;;;;;;6.40;1.65;;;;;;;19.57;48.89;100539.22;4988245;28;20421;-80
2022/05/22 10:55:30;;;;;;;5.43;1.10;;;;;;;19.79;48.74;100543.44;5005415;28;20580;-80
2022/05/22 10:58:35;;;;;;;5.80;1.58;;;;;;;19.72;49.39;100543.16;5005709;28;20057;-80
2022/05/22 11:01:40;;;;;;;5.25;1.65;;;;;;;19.84;50.01;100540.34;5002854;28;20057;-80
2022/05/22 11:04:47;;;;;;;6.97;1.48;;;;;;;19.88;48.44;100541.78;4999842;28;20052;-79
2022/05/22 11:07:52;;;;;;;5.57;1.85;;;;;;;19.93;47.38;100542.19;4999803;28;20049;-76
2022/05/22 11:11:09;;;;;;;4.32;1.08;;;;;;;19.79;46.83;100545.25;5012025;28;20049;-76
2022/05/22 11:14:21;;;;;;;6.95;1.50;;;;;;;19.90;49.08;100537.16;5011917;28;20509;-77
2022/05/22 11:17:24;;;;;;;6.72;1.52;;;;;;;20.09;49.09;100534.47;5011932;28;20053;-76
2022/05/22 11:20:28;;;;;;;6.13;1.20;;;;;;;20.29;46.41;100535.28;5012146;28;20049;-77
2022/05/22 11:23:43;;;;;;;5.13;1.83;;;;;;;20.33;47.85;100527.91;4993383;28;20130;-77
2022/05/22 11:27:07;;;;;;;4.65;1.30;;;;;;;20.44;47.22;100528.53;4991343;28;20069;-77
2022/05/22 11:30:28;;;;;;;47.92;16.15;;;;;;;20.40;47.06;100526.34;4996165;28;20045;-76
2022/05/22 11:33:38;;;;;;;56.75;18.52;;;;;;;20.39;44.75;100516.69;4996107;28;20069;-76
2022/05/22 11:37:09;;;;;;;109.75;74.43;;;;;;;20.46;46.47;100504.50;4996456;28;20048;-76
2022/05/22 11:40:14;;;;;;;31.03;18.47;;;;;;;20.53;45.26;100500.31;4996950;28;20041;-76
2022/05/22 11:43:32;;;;;;;22.65;11.00;;;;;;;20.68;46.34;100498.03;4996468;28;20092;-76
2022/05/22 11:46:36;;;;;;;12.65;4.60;;;;;;;20.65;43.73;100488.53;5010699;28;20044;-76
2022/05/22 11:49:56;;;;;;;5.97;2.60;;;;;;;20.56;44.71;100484.09;5015981;28;20056;-76
2022/05/22 11:53:25;;;;;;;12.20;5.00;;;;;;;20.72;45.93;100472.00;5015736;28;20119;-76
2022/05/22 11:56:39;;;;;;;8.35;2.15;;;;;;;21.00;45.20;100471.03;5014074;28;20068;-76
2022/05/22 11:59:51;;;;;;;7.20;1.60;;;;;;;21.19;44.92;100466.56;5024457;28;20504;-77
2022/05/22 12:03:17;;;;;;;6.30;1.45;;;;;;;21.31;43.71;100463.56;5013919;28;20096;-77
2022/05/22 12:06:36;;;;;;;3.83;1.00;;;;;;;21.18;43.78;100460.41;4993828;28;20069;-77
2022/05/22 12:09:56;;;;;;;7.45;1.38;;;;;;;21.59;44.24;100469.63;4995194;28;20073;-76
2022/05/22 12:13:13;;;;;;;4.85;1.40;;;;;;;21.71;43.58;100475.56;4995855;28;20169;-76
2022/05/22 12:16:21;;;;;;;5.28;1.42;;;;;;;21.97;41.92;100464.94;4995714;28;20457;-76
2022/05/22 12:20:10;;;;;;;5.10;0.90;;;;;;;21.62;41.14;100459.69;4995992;28;20045;-76
2022/05/22 12:23:28;;;;;;;5.28;1.35;;;;;;;21.62;43.93;100449.88;5000079;28;20081;-76
2022/05/22 12:26:41;;;;;;;3.47;1.08;;;;;;;21.72;42.99;100439.97;5015163;28;20528;-77
2022/05/22 12:30:10;;;;;;;4.65;1.48;;;;;;;21.68;42.21;100429.81;5002016;28;20057;-77
2022/05/22 12:33:15;;;;;;;4.72;1.20;;;;;;;21.56;42.54;100416.72;5015338;28;20041;-75
2022/05/22 12:36:26;;;;;;;7.90;1.60;;;;;;;22.12;41.13;100396.00;5014859;28;20536;-74
2022/05/22 12:39:37;;;;;;;4.45;1.20;;;;;;;22.15;40.26;100400.19;5013934;28;20048;-74
2022/05/22 12:42:49;;;;;;;6.43;1.33;;;;;;;22.38;39.12;100406.66;5014937;28;20088;-74
2022/05/22 12:46:00;;;;;;;3.80;0.98;;;;;;;22.05;38.71;100403.78;5002698;28;20060;-74
2022/05/22 12:49:25;;;;;;;4.28;1.00;;;;;;;22.69;37.80;100398.94;5014608;28;20044;-74
2022/05/22 12:52:33;;;;;;;5.82;1.63;;;;;;;23.19;38.19;100391.91;5014803;28;20408;-75
2022/05/22 12:55:39;;;;;;;4.25;1.08;;;;;;;23.54;38.18;100387.25;5014606;28;20061;-74
2022/05/22 12:59:01;;;;;;;5.57;1.30;;;;;;;23.80;36.70;100393.28;5013665;28;20061;-75
2022/05/22 13:02:07;;;;;;;6.13;1.95;;;;;;;24.24;35.97;100384.78;5014666;28;20048;-77
2022/05/22 13:05:31;;;;;;;4.55;1.52;;;;;;;24.36;35.79;100382.59;5014379;28;20053;-77
2022/05/22 13:08:43;;;;;;;6.05;1.67;;;;;;;24.43;35.20;100375.56;5014318;28;20053;-77
2022/05/22 13:11:57;;;;;;;4.47;1.23;;;;;;;24.58;34.40;100378.34;5014421;28;20069;-77
2022/05/22 13:15:03;;;;;;;;;;;;;;;24.82;33.33;100370.19;5014747;28;20045;-77
2022/05/22 13:18:17;;;;;;;3.47;1.05;;;;;;;25.23;33.28;100363.75;5013969;28;20383;-77
2022/05/22 13:21:39;;;;;;;5.03;1.33;;;;;;;25.54;32.90;100360.97;5014164;28;20104;-77
2022/05/22 13:24:51;;;;;;;2.65;0.95;;;;;;;25.89;32.56;100358.66;5001920;28;20516;-76
2022/05/22 13:27:54;;;;;;;3.95;0.90;;;;;;;25.57;31.44;100357.94;5013109;28;20118;-77
2022/05/22 13:31:08;;;;;;;2.75;0.80;;;;;;;25.57;32.61;100354.44;5013892;28;20133;-77
2022/05/22 13:34:15;;;;;;;3.50;0.90;;;;;;;26.05;32.14;100342.38;5013679;28;20112;-77
2022/05/22 13:37:30;;;;;;;3.58;0.93;;;;;;;26.31;31.90;100349.09;5013988;28;20092;-77
2022/05/22 13:40:51;;;;;;;4.00;1.05;;;;;;;26.47;31.64;100343.53;5013744;28;20061;-77
2022/05/22 13:44:13;;;;;;;7.20;0.98;;;;;;;26.65;30.33;100345.84;5023439;28;20524;-77
2022/05/22 13:47:59;;;;;;;3.42;0.95;;;;;;;27.49;29.50;100346.03;5013474;28;20049;-77
2022/05/22 13:55:22;;;;;;;2.65;0.90;;;;;;;27.98;29.53;100333.56;5013657;28;20117;-77
2022/05/22 13:58:30;;;;;;;3.90;1.40;;;;;;;28.59;29.12;100325.59;5012239;28;20552;-77
2022/05/22 14:01:34;;;;;;;3.78;1.38;;;;;;;29.69;27.51;100323.41;5013352;28;20131;-77
2022/05/22 14:04:40;;;;;;;7.00;1.77;;;;;;;31.59;25.42;100322.75;5013294;28;20044;-77
2022/05/22 14:07:51;;;;;;;5.13;1.77;;;;;;;33.86;22.07;100305.78;5013161;28;20133;-77
2022/05/22 14:11:06;;;;;;;4.57;1.58;;;;;;;33.55;22.87;100296.97;5013278;28;20049;-78
2022/05/22 14:14:26;;;;;;;3.15;1.27;;;;;;;32.95;23.14;100297.13;5013240;28;20084;-78
2022/05/22 14:17:34;;;;;;;3.53;1.10;;;;;;;32.41;22.45;100294.34;5012891;28;20450;-78
2022/05/22 14:20:41;;;;;;;2.83;1.20;;;;;;;32.80;22.72;100296.75;5012951;28;20133;-77
2022/05/22 14:27:33;;;;;;;3.63;1.02;;;;;;;35.66;20.06;100297.03;5011376;28;20045;-78
2022/05/22 14:30:39;;;;;;;4.45;1.20;;;;;;;35.77;19.78;100289.81;5013037;28;20129;-77
2022/05/22 14:33:44;;;;;;;3.13;1.40;;;;;;;37.16;18.22;100288.31;5012837;28;20144;-78
2022/05/22 14:36:52;;;;;;;4.95;2.20;;;;;;;37.06;18.21;100296.41;5012655;28;20041;-78
2022/05/22 14:39:56;;;;;;;4.75;1.52;;;;;;;38.61;15.88;100285.94;5012788;28;20044;-78
2022/05/22 14:43:03;;;;;;;5.82;1.63;;;;;;;37.67;16.08;100280.44;5012820;28;20555;-78
2022/05/22 14:46:12;;;;;;;3.33;1.13;;;;;;;38.64;15.72;100279.91;5012415;28;20575;-78
2022/05/22 14:49:28;;;;;;;5.18;1.48;;;;;;;39.07;15.39;100269.56;5012485;28;20104;-78
2022/05/22 14:52:41;;;;;;;3.70;1.40;;;;;;;40.38;14.02;100263.88;5012937;28;20076;-78
2022/05/22 14:55:48;;;;;;;5.00;1.63;;;;;;;39.49;15.28;100268.38;5012628;28;20500;-78
2022/05/22 14:58:59;;;;;;;3.35;1.30;;;;;;;39.10;15.35;100270.94;5011319;28;20100;-78
2022/05/22 15:02:08;;;;;;;9.38;1.50;;;;;;;35.97;18.36;100267.50;5000298;28;20052;-78
2022/05/22 15:05:18;;;;;;;3.35;1.40;;;;;;;36.25;18.01;100267.31;5011798;28;20125;-79
2022/05/22 15:08:30;;;;;;;3.97;1.20;;;;;;;37.58;17.07;100265.66;5012652;28;20053;-79
2022/05/22 15:11:42;;;;;;;3.55;1.55;;;;;;;36.21;17.82;100268.06;5000457;28;20124;-79
2022/05/22 15:14:49;;;;;;;4.10;1.23;;;;;;;38.82;15.89;100248.50;5012154;28;20045;-79
2022/05/22 15:18:02;;;;;;;4.32;1.60;;;;;;;39.14;15.34;100250.94;5012357;28;20049;-79
2022/05/22 15:21:06;;;;;;;4.15;1.48;;;;;;;38.82;15.64;100259.44;5012303;28;20044;-79